sensor_id;sensor_type;location;lat;lon;timestamp;pressure;altitude;pressure_sealevel;temperature;humidity
54194;BME280;40102;50.906;6.972;2023-04-25T00:01:37;100356.38;;;10.53;62.45
54194;BME280;40102;50.906;6.972;2023-04-25T00:04:03;100359.81;;;10.55;61.88
54194;BME280;40102;50.906;6.972;2023-04-25T00:06:31;100351.91;;;10.54;61.77
54194;BME280;40102;50.906;6.972;2023-04-25T00:08:57;100367.94;;;10.54;61.59
54194;BME280;40102;50.906;6.972;2023-04-25T00:11:23;100360.00;;;10.52;61.43
54194;BME280;40102;50.906;6.972;2023-04-25T00:13:48;100365.94;;;10.57;61.94
54194;BME280;40102;50.906;6.972;2023-04-25T00:16:16;100378.25;;;10.60;61.68
54194;BME280;40102;50.906;6.972;2023-04-25T00:18:44;100373.97;;;10.57;61.75
54194;BME280;40102;50.906;6.972;2023-04-25T00:21:11;100366.13;;;10.54;61.46
54194;BME280;40102;50.906;6.972;2023-04-25T00:23:36;100377.09;;;10.50;61.48
54194;BME280;40102;50.906;6.972;2023-04-25T00:26:02;100367.94;;;10.40;61.79
54194;BME280;40102;50.906;6.972;2023-04-25T00:28:28;100373.09;;;10.43;61.77
54194;BME280;40102;50.906;6.972;2023-04-25T00:30:53;100371.66;;;10.37;61.69
54194;BME280;40102;50.906;6.972;2023-04-25T00:33:18;100370.91;;;10.35;61.84
54194;BME280;40102;50.906;6.972;2023-04-25T00:35:44;100367.75;;;10.28;61.92
54194;BME280;40102;50.906;6.972;2023-04-25T00:38:09;100370.59;;;10.25;62.08
54194;BME280;40102;50.906;6.972;2023-04-25T00:40:35;100378.44;;;10.28;62.18
54194;BME280;40102;50.906;6.972;2023-04-25T00:43:00;100368.69;;;10.27;62.18
54194;BME280;40102;50.906;6.972;2023-04-25T00:45:29;100377.19;;;10.34;62.39
54194;BME280;40102;50.906;6.972;2023-04-25T00:47:55;100363.25;;;10.29;61.93
54194;BME280;40102;50.906;6.972;2023-04-25T00:50:21;100366.69;;;10.31;61.62
54194;BME280;40102;50.906;6.972;2023-04-25T00:52:49;100362.84;;;10.21;61.83
54194;BME280;40102;50.906;6.972;2023-04-25T00:55:15;100366.53;;;10.18;61.93
54194;BME280;40102;50.906;6.972;2023-04-25T00:57:41;100374.50;;;10.20;62.66
54194;BME280;40102;50.906;6.972;2023-04-25T01:00:10;100372.22;;;10.28;62.42
54194;BME280;40102;50.906;6.972;2023-04-25T01:02:36;100365.34;;;10.24;62.08
54194;BME280;40102;50.906;6.972;2023-04-25T01:05:03;100363.81;;;10.20;62.10
54194;BME280;40102;50.906;6.972;2023-04-25T01:07:28;100365.53;;;10.21;61.91
54194;BME280;40102;50.906;6.972;2023-04-25T01:09:54;100364.56;;;10.22;62.21
54194;BME280;40102;50.906;6.972;2023-04-25T01:12:20;100377.66;;;10.26;62.30
54194;BME280;40102;50.906;6.972;2023-04-25T01:14:46;100375.16;;;10.23;62.26
54194;BME280;40102;50.906;6.972;2023-04-25T01:17:12;100373.09;;;10.28;62.15
54194;BME280;40102;50.906;6.972;2023-04-25T01:19:37;100370.78;;;10.22;61.97
54194;BME280;40102;50.906;6.972;2023-04-25T01:22:03;100381.19;;;10.27;61.86
54194;BME280;40102;50.906;6.972;2023-04-25T01:24:31;100373.34;;;10.24;61.98
54194;BME280;40102;50.906;6.972;2023-04-25T01:26:58;100379.47;;;10.26;61.87
54194;BME280;40102;50.906;6.972;2023-04-25T01:29:23;100369.16;;;10.20;62.06
54194;BME280;40102;50.906;6.972;2023-04-25T01:31:51;100368.97;;;10.23;62.20
54194;BME280;40102;50.906;6.972;2023-04-25T01:34:17;100362.00;;;10.20;61.94
54194;BME280;40102;50.906;6.972;2023-04-25T01:36:43;100376.28;;;10.19;62.13
54194;BME280;40102;50.906;6.972;2023-04-25T01:39:09;100384.22;;;10.21;62.20
54194;BME280;40102;50.906;6.972;2023-04-25T01:41:34;100394.66;;;10.25;62.19
54194;BME280;40102;50.906;6.972;2023-04-25T01:44:00;100372.06;;;10.15;62.11
54194;BME280;40102;50.906;6.972;2023-04-25T01:46:26;100384.47;;;10.16;62.11
54194;BME280;40102;50.906;6.972;2023-04-25T01:48:52;100380.84;;;10.17;62.07
54194;BME280;40102;50.906;6.972;2023-04-25T01:51:17;100384.47;;;10.16;61.96
54194;BME280;40102;50.906;6.972;2023-04-25T01:53:43;100391.44;;;10.19;62.45
54194;BME280;40102;50.906;6.972;2023-04-25T01:56:08;100391.22;;;10.23;62.57
54194;BME280;40102;50.906;6.972;2023-04-25T01:58:34;100384.28;;;10.19;62.54
54194;BME280;40102;50.906;6.972;2023-04-25T02:00:59;100386.91;;;10.21;62.27
54194;BME280;40102;50.906;6.972;2023-04-25T02:03:25;100390.84;;;10.14;62.59
54194;BME280;40102;50.906;6.972;2023-04-25T02:05:50;100397.06;;;10.14;62.35
54194;BME280;40102;50.906;6.972;2023-04-25T02:08:16;100392.00;;;10.10;62.40
54194;BME280;40102;50.906;6.972;2023-04-25T02:10:43;100393.72;;;10.11;62.94
54194;BME280;40102;50.906;6.972;2023-04-25T02:13:08;100400.59;;;10.15;62.73
54194;BME280;40102;50.906;6.972;2023-04-25T02:15:33;100399.06;;;10.11;62.42
54194;BME280;40102;50.906;6.972;2023-04-25T02:17:59;100390.44;;;10.05;62.37
54194;BME280;40102;50.906;6.972;2023-04-25T02:20:29;100398.47;;;10.05;62.44
54194;BME280;40102;50.906;6.972;2023-04-25T02:22:55;100390.81;;;9.99;62.74
54194;BME280;40102;50.906;6.972;2023-04-25T02:25:20;100397.59;;;10.05;62.68
54194;BME280;40102;50.906;6.972;2023-04-25T02:27:49;100390.53;;;10.04;62.33
54194;BME280;40102;50.906;6.972;2023-04-25T02:30:15;100380.97;;;10.00;62.65
54194;BME280;40102;50.906;6.972;2023-04-25T02:32:41;100381.06;;;9.98;62.51
54194;BME280;40102;50.906;6.972;2023-04-25T02:35:06;100381.06;;;9.98;62.93
54194;BME280;40102;50.906;6.972;2023-04-25T02:37:33;100396.41;;;9.95;62.72
54194;BME280;40102;50.906;6.972;2023-04-25T02:40:02;100398.91;;;9.98;62.53
54194;BME280;40102;50.906;6.972;2023-04-25T02:42:35;100396.50;;;9.93;62.58
54194;BME280;40102;50.906;6.972;2023-04-25T02:45:00;100387.72;;;9.91;62.46
54194;BME280;40102;50.906;6.972;2023-04-25T02:47:26;100406.16;;;9.96;61.90
54194;BME280;40102;50.906;6.972;2023-04-25T02:49:51;100402.03;;;9.90;62.29
54194;BME280;40102;50.906;6.972;2023-04-25T02:52:17;100391.16;;;9.93;62.39
54194;BME280;40102;50.906;6.972;2023-04-25T02:54:42;100387.72;;;9.91;62.21
54194;BME280;40102;50.906;6.972;2023-04-25T02:57:07;100401.75;;;9.95;62.57
54194;BME280;40102;50.906;6.972;2023-04-25T02:59:33;100393.16;;;9.90;62.39
54194;BME280;40102;50.906;6.972;2023-04-25T03:01:58;100387.91;;;9.88;62.36
54194;BME280;40102;50.906;6.972;2023-04-25T03:04:24;100398.06;;;9.97;62.49
54194;BME280;40102;50.906;6.972;2023-04-25T03:06:50;100388.59;;;9.92;62.37
54194;BME280;40102;50.906;6.972;2023-04-25T03:09:16;100392.97;;;9.93;62.24
54194;BME280;40102;50.906;6.972;2023-04-25T03:11:42;100398.06;;;9.97;62.35
54194;BME280;40102;50.906;6.972;2023-04-25T03:14:07;100388.31;;;9.96;62.33
54194;BME280;40102;50.906;6.972;2023-04-25T03:16:32;100390.81;;;9.99;62.37
54194;BME280;40102;50.906;6.972;2023-04-25T03:18:58;100391.00;;;9.96;62.31
54194;BME280;40102;50.906;6.972;2023-04-25T03:21:23;100410.00;;;10.06;62.29
54194;BME280;40102;50.906;6.972;2023-04-25T03:23:48;100399.00;;;9.96;62.17
54194;BME280;40102;50.906;6.972;2023-04-25T03:26:14;100392.88;;;9.94;62.32
54194;BME280;40102;50.906;6.972;2023-04-25T03:28:39;100397.63;;;9.89;62.82
54194;BME280;40102;50.906;6.972;2023-04-25T03:31:05;100384.53;;;9.85;63.10
54194;BME280;40102;50.906;6.972;2023-04-25T03:33:30;100399.34;;;9.90;62.84
54194;BME280;40102;50.906;6.972;2023-04-25T03:35:56;100403.31;;;9.99;63.09
54194;BME280;40102;50.906;6.972;2023-04-25T03:38:21;100392.88;;;9.94;63.25
54194;BME280;40102;50.906;6.972;2023-04-25T03:40:46;100397.28;;;9.95;62.98
54194;BME280;40102;50.906;6.972;2023-04-25T03:43:12;100391.44;;;9.89;62.96
54194;BME280;40102;50.906;6.972;2023-04-25T03:45:37;100386.34;;;9.84;63.09
54194;BME280;40102;50.906;6.972;2023-04-25T03:48:03;100392.47;;;9.86;63.28
54194;BME280;40102;50.906;6.972;2023-04-25T03:50:28;100401.44;;;9.85;63.70
54194;BME280;40102;50.906;6.972;2023-04-25T03:52:53;100404.97;;;9.86;63.52
54194;BME280;40102;50.906;6.972;2023-04-25T03:55:19;100400.75;;;9.82;63.73
54194;BME280;40102;50.906;6.972;2023-04-25T03:57:45;100414.78;;;9.85;63.63
54194;BME280;40102;50.906;6.972;2023-04-25T04:00:11;100415.16;;;9.79;64.00
54194;BME280;40102;50.906;6.972;2023-04-25T04:02:36;100413.34;;;9.80;64.09
54194;BME280;40102;50.906;6.972;2023-04-25T04:05:03;100418.31;;;9.86;64.10
54194;BME280;40102;50.906;6.972;2023-04-25T04:07:28;100406.25;;;9.79;63.99
54194;BME280;40102;50.906;6.972;2023-04-25T04:09:54;100408.00;;;9.80;64.28
54194;BME280;40102;50.906;6.972;2023-04-25T04:12:19;100417.72;;;9.81;64.40
54194;BME280;40102;50.906;6.972;2023-04-25T04:14:45;100429.53;;;9.77;64.84
54194;BME280;40102;50.906;6.972;2023-04-25T04:17:10;100433.75;;;9.81;64.69
54194;BME280;40102;50.906;6.972;2023-04-25T04:19:35;100428.66;;;9.76;64.49
54194;BME280;40102;50.906;6.972;2023-04-25T04:22:01;100432.63;;;9.85;64.82
54194;BME280;40102;50.906;6.972;2023-04-25T04:24:26;100426.69;;;9.80;64.53
54194;BME280;40102;50.906;6.972;2023-04-25T04:26:51;100437.97;;;9.85;64.85
54194;BME280;40102;50.906;6.972;2023-04-25T04:29:18;100435.38;;;9.83;64.57
54194;BME280;40102;50.906;6.972;2023-04-25T04:31:50;100431.16;;;9.79;64.51
54194;BME280;40102;50.906;6.972;2023-04-25T04:34:18;100433.16;;;9.76;64.53
54194;BME280;40102;50.906;6.972;2023-04-25T04:36:46;100433.25;;;9.74;64.72
54194;BME280;40102;50.906;6.972;2023-04-25T04:39:12;100439.34;;;9.76;65.18
54194;BME280;40102;50.906;6.972;2023-04-25T04:41:38;100450.91;;;9.77;64.97
54194;BME280;40102;50.906;6.972;2023-04-25T04:44:04;100443.16;;;9.72;64.99
54194;BME280;40102;50.906;6.972;2023-04-25T04:46:29;100445.91;;;9.70;65.03
54194;BME280;40102;50.906;6.972;2023-04-25T04:48:56;100463.31;;;9.78;65.30
54194;BME280;40102;50.906;6.972;2023-04-25T04:51:21;100460.81;;;9.74;65.29
54194;BME280;40102;50.906;6.972;2023-04-25T04:53:47;100459.44;;;9.67;65.05
54194;BME280;40102;50.906;6.972;2023-04-25T04:56:12;100453.13;;;9.68;65.22
54194;BME280;40102;50.906;6.972;2023-04-25T04:58:37;100465.47;;;9.71;65.53
54194;BME280;40102;50.906;6.972;2023-04-25T05:01:03;100464.50;;;9.72;65.60
54194;BME280;40102;50.906;6.972;2023-04-25T05:03:28;100485.53;;;9.78;65.47
54194;BME280;40102;50.906;6.972;2023-04-25T05:05:54;100482.09;;;9.76;65.42
54194;BME280;40102;50.906;6.972;2023-04-25T05:08:19;100481.41;;;9.72;65.68
54194;BME280;40102;50.906;6.972;2023-04-25T05:10:44;100485.03;;;9.71;65.57
54194;BME280;40102;50.906;6.972;2023-04-25T05:13:10;100485.88;;;9.72;65.38
54194;BME280;40102;50.906;6.972;2023-04-25T05:15:35;100487.59;;;9.73;65.49
54194;BME280;40102;50.906;6.972;2023-04-25T05:18:02;100487.78;;;9.70;65.40
54194;BME280;40102;50.906;6.972;2023-04-25T05:20:27;100490.00;;;9.62;65.36
54194;BME280;40102;50.906;6.972;2023-04-25T05:22:52;100490.19;;;9.59;66.05
54194;BME280;40102;50.906;6.972;2023-04-25T05:25:18;100497.06;;;9.63;66.43
54194;BME280;40102;50.906;6.972;2023-04-25T05:27:43;100506.13;;;9.60;66.46
54194;BME280;40102;50.906;6.972;2023-04-25T05:30:09;100505.88;;;9.65;66.04
54194;BME280;40102;50.906;6.972;2023-04-25T05:32:34;100512.41;;;9.59;66.69
54194;BME280;40102;50.906;6.972;2023-04-25T05:35:00;100514.81;;;9.64;66.38
54194;BME280;40102;50.906;6.972;2023-04-25T05:37:26;100510.69;;;9.58;66.04
54194;BME280;40102;50.906;6.972;2023-04-25T05:39:51;100518.34;;;9.64;66.04
54194;BME280;40102;50.906;6.972;2023-04-25T05:42:16;100521.88;;;9.65;65.93
54194;BME280;40102;50.906;6.972;2023-04-25T05:44:42;100515.75;;;9.63;65.67
54194;BME280;40102;50.906;6.972;2023-04-25T05:47:07;100521.03;;;9.64;66.07
54194;BME280;40102;50.906;6.972;2023-04-25T05:49:34;100518.69;;;9.58;66.17
54194;BME280;40102;50.906;6.972;2023-04-25T05:51:59;100536.19;;;9.64;66.10
54194;BME280;40102;50.906;6.972;2023-04-25T05:54:24;100526.53;;;9.61;66.01
54194;BME280;40102;50.906;6.972;2023-04-25T05:56:50;100531.38;;;10.02;74.83
54194;BME280;40102;50.906;6.972;2023-04-25T05:59:15;100536.59;;;10.21;67.88
54194;BME280;40102;50.906;6.972;2023-04-25T06:01:41;100537.34;;;10.23;67.21
54194;BME280;40102;50.906;6.972;2023-04-25T06:04:07;100538.31;;;10.52;73.79
54194;BME280;40102;50.906;6.972;2023-04-25T06:06:32;100536.97;;;10.75;69.30
54194;BME280;40102;50.906;6.972;2023-04-25T06:08:57;100544.72;;;11.09;74.43
54194;BME280;40102;50.906;6.972;2023-04-25T06:11:23;100541.50;;;11.61;72.33
54194;BME280;40102;50.906;6.972;2023-04-25T06:13:49;100534.53;;;11.87;64.32
54194;BME280;40102;50.906;6.972;2023-04-25T06:16:15;100550.97;;;11.66;60.40
54194;BME280;40102;50.906;6.972;2023-04-25T06:18:43;100532.09;;;11.25;60.68
54194;BME280;40102;50.906;6.972;2023-04-25T06:21:08;100536.84;;;10.92;61.11
54194;BME280;40102;50.906;6.972;2023-04-25T06:23:33;100532.34;;;10.62;62.15
54194;BME280;40102;50.906;6.972;2023-04-25T06:25:59;100550.06;;;10.49;62.71
54194;BME280;40102;50.906;6.972;2023-04-25T06:28:24;100547.44;;;10.33;63.05
54194;BME280;40102;50.906;6.972;2023-04-25T06:30:50;100540.81;;;10.25;63.12
54194;BME280;40102;50.906;6.972;2023-04-25T06:33:16;100546.16;;;10.25;62.96
54194;BME280;40102;50.906;6.972;2023-04-25T06:35:41;100547.28;;;10.21;62.94
54194;BME280;40102;50.906;6.972;2023-04-25T06:38:06;100544.53;;;10.22;63.35
54194;BME280;40102;50.906;6.972;2023-04-25T06:40:31;100545.22;;;10.26;62.75
54194;BME280;40102;50.906;6.972;2023-04-25T06:42:57;100536.59;;;10.21;63.09
54194;BME280;40102;50.906;6.972;2023-04-25T06:45:22;100542.06;;;10.18;62.83
54194;BME280;40102;50.906;6.972;2023-04-25T06:47:47;100533.28;;;10.16;62.85
54194;BME280;40102;50.906;6.972;2023-04-25T06:50:13;100534.91;;;10.18;63.06
54194;BME280;40102;50.906;6.972;2023-04-25T06:52:38;100543.09;;;10.15;62.86
54194;BME280;40102;50.906;6.972;2023-04-25T06:55:04;100547.50;;;10.16;63.23
54194;BME280;40102;50.906;6.972;2023-04-25T06:57:30;100560.38;;;10.25;62.98
54194;BME280;40102;50.906;6.972;2023-04-25T06:59:55;100548.28;;;10.18;63.03
54194;BME280;40102;50.906;6.972;2023-04-25T07:02:21;100543.19;;;10.14;62.90
54194;BME280;40102;50.906;6.972;2023-04-25T07:04:49;100553.72;;;10.17;62.82
54194;BME280;40102;50.906;6.972;2023-04-25T07:07:15;100563.31;;;10.21;62.51
54194;BME280;40102;50.906;6.972;2023-04-25T07:09:40;100570.69;;;10.16;62.65
54194;BME280;40102;50.906;6.972;2023-04-25T07:12:06;100575.88;;;10.19;62.87
54194;BME280;40102;50.906;6.972;2023-04-25T07:14:31;100564.75;;;10.11;62.40
54194;BME280;40102;50.906;6.972;2023-04-25T07:16:56;100564.91;;;10.07;62.74
54194;BME280;40102;50.906;6.972;2023-04-25T07:19:22;100572.84;;;10.09;62.52
54194;BME280;40102;50.906;6.972;2023-04-25T07:21:49;100573.72;;;10.10;62.39
54194;BME280;40102;50.906;6.972;2023-04-25T07:24:14;100565.53;;;10.13;62.30
54194;BME280;40102;50.906;6.972;2023-04-25T07:26:39;100588.47;;;10.17;61.99
54194;BME280;40102;50.906;6.972;2023-04-25T07:29:05;100573.03;;;10.06;62.52
54194;BME280;40102;50.906;6.972;2023-04-25T07:31:30;100584.84;;;10.02;62.41
54194;BME280;40102;50.906;6.972;2023-04-25T07:33:56;100586.31;;;10.07;61.98
54194;BME280;40102;50.906;6.972;2023-04-25T07:36:21;100579.66;;;9.99;61.90
54194;BME280;40102;50.906;6.972;2023-04-25T07:38:46;100582.41;;;9.97;61.65
54194;BME280;40102;50.906;6.972;2023-04-25T07:41:12;100574.41;;;9.97;61.59
54194;BME280;40102;50.906;6.972;2023-04-25T07:43:40;100582.50;;;9.96;61.50
54194;BME280;40102;50.906;6.972;2023-04-25T07:46:05;100589.81;;;9.92;61.01
54194;BME280;40102;50.906;6.972;2023-04-25T07:48:31;100592.56;;;9.91;61.10
54194;BME280;40102;50.906;6.972;2023-04-25T07:50:56;100599.56;;;9.93;60.57
54194;BME280;40102;50.906;6.972;2023-04-25T07:53:22;100589.72;;;9.94;60.17
54194;BME280;40102;50.906;6.972;2023-04-25T07:55:47;100598.44;;;9.97;60.21
54194;BME280;40102;50.906;6.972;2023-04-25T07:58:12;100599.75;;;10.06;60.27
54194;BME280;40102;50.906;6.972;2023-04-25T08:00:38;100605.78;;;10.10;60.16
54194;BME280;40102;50.906;6.972;2023-04-25T08:03:04;100614.56;;;10.12;59.36
54194;BME280;40102;50.906;6.972;2023-04-25T08:05:29;100608.13;;;10.16;58.37
54194;BME280;40102;50.906;6.972;2023-04-25T08:08:02;100606.38;;;10.15;59.17
54194;BME280;40102;50.906;6.972;2023-04-25T08:10:27;100628.25;;;10.23;58.98
54194;BME280;40102;50.906;6.972;2023-04-25T08:12:53;100623.13;;;10.18;58.63
54194;BME280;40102;50.906;6.972;2023-04-25T08:15:18;100627.50;;;10.19;58.29
54194;BME280;40102;50.906;6.972;2023-04-25T08:17:43;100631.00;;;10.21;58.73
54194;BME280;40102;50.906;6.972;2023-04-25T08:20:09;100643.41;;;10.22;59.31
54194;BME280;40102;50.906;6.972;2023-04-25T08:22:36;100639.03;;;10.21;59.43
54194;BME280;40102;50.906;6.972;2023-04-25T08:25:01;100645.91;;;10.25;58.26
54194;BME280;40102;50.906;6.972;2023-04-25T08:27:26;100651.44;;;10.22;58.36
54194;BME280;40102;50.906;6.972;2023-04-25T08:29:52;100648.00;;;10.20;58.60
54194;BME280;40102;50.906;6.972;2023-04-25T08:32:18;100656.78;;;10.22;57.94
54194;BME280;40102;50.906;6.972;2023-04-25T08:34:43;100655.41;;;10.31;57.93
54194;BME280;40102;50.906;6.972;2023-04-25T08:37:09;100646.09;;;10.22;57.20
54194;BME280;40102;50.906;6.972;2023-04-25T08:39:36;100656.78;;;10.22;57.68
54194;BME280;40102;50.906;6.972;2023-04-25T08:42:02;100676.44;;;10.21;57.69
54194;BME280;40102;50.906;6.972;2023-04-25T08:44:33;100661.88;;;10.27;57.55
54194;BME280;40102;50.906;6.972;2023-04-25T08:47:02;100673.50;;;10.26;56.68
54194;BME280;40102;50.906;6.972;2023-04-25T08:49:28;100685.78;;;10.30;56.60
54194;BME280;40102;50.906;6.972;2023-04-25T08:51:59;100683.09;;;10.30;55.89
54194;BME280;40102;50.906;6.972;2023-04-25T08:54:24;100694.22;;;10.38;55.85
54194;BME280;40102;50.906;6.972;2023-04-25T08:56:54;100683.78;;;10.33;56.29
54194;BME280;40102;50.906;6.972;2023-04-25T08:59:21;100688.59;;;10.27;55.67
54194;BME280;40102;50.906;6.972;2023-04-25T09:01:49;100695.94;;;10.23;53.78
54194;BME280;40102;50.906;6.972;2023-04-25T09:04:14;100703.16;;;10.21;53.46
54194;BME280;40102;50.906;6.972;2023-04-25T09:06:40;100708.81;;;10.15;54.83
54194;BME280;40102;50.906;6.972;2023-04-25T09:09:06;100706.78;;;10.20;54.93
54194;BME280;40102;50.906;6.972;2023-04-25T09:11:33;100710.16;;;10.24;54.50
54194;BME280;40102;50.906;6.972;2023-04-25T09:14:11;100723.38;;;10.27;55.08
54194;BME280;40102;50.906;6.972;2023-04-25T09:16:57;100714.00;;;10.18;54.98
54194;BME280;40102;50.906;6.972;2023-04-25T09:19:27;100715.72;;;10.19;55.16
54194;BME280;40102;50.906;6.972;2023-04-25T09:21:59;100728.72;;;10.27;55.28
54194;BME280;40102;50.906;6.972;2023-04-25T09:24:42;100728.78;;;10.25;55.63
54194;BME280;40102;50.906;6.972;2023-04-25T09:27:11;100737.69;;;10.26;55.81
54194;BME280;40102;50.906;6.972;2023-04-25T09:29:38;100741.03;;;10.29;55.54
54194;BME280;40102;50.906;6.972;2023-04-25T09:32:21;100728.00;;;10.23;55.26
54194;BME280;40102;50.906;6.972;2023-04-25T09:34:48;100740.44;;;10.24;54.84
54194;BME280;40102;50.906;6.972;2023-04-25T09:37:32;100748.38;;;10.26;54.68
54194;BME280;40102;50.906;6.972;2023-04-25T09:39:59;100740.59;;;10.21;53.70
54194;BME280;40102;50.906;6.972;2023-04-25T09:42:28;100742.47;;;10.19;53.76
54194;BME280;40102;50.906;6.972;2023-04-25T09:44:56;100739.72;;;10.21;53.57
54194;BME280;40102;50.906;6.972;2023-04-25T09:47:25;100747.66;;;10.22;53.10
54194;BME280;40102;50.906;6.972;2023-04-25T09:49:52;100740.44;;;10.24;52.92
54194;BME280;40102;50.906;6.972;2023-04-25T09:52:19;100755.91;;;10.35;52.52
54194;BME280;40102;50.906;6.972;2023-04-25T09:54:46;100756.84;;;10.34;52.55
54194;BME280;40102;50.906;6.972;2023-04-25T09:57:23;100759.94;;;10.42;53.15
54194;BME280;40102;50.906;6.972;2023-04-25T09:59:50;100749.59;;;10.36;53.64
54194;BME280;40102;50.906;6.972;2023-04-25T10:02:21;100760.13;;;10.39;53.47
54194;BME280;40102;50.906;6.972;2023-04-25T10:04:51;100757.25;;;10.26;51.84
54194;BME280;40102;50.906;6.972;2023-04-25T10:07:20;100754.56;;;10.26;52.20
54194;BME280;40102;50.906;6.972;2023-04-25T10:09:48;100761.72;;;10.26;53.39
54194;BME280;40102;50.906;6.972;2023-04-25T10:12:17;100782.88;;;10.30;53.69
54194;BME280;40102;50.906;6.972;2023-04-25T10:14:43;100777.84;;;10.24;53.56
54194;BME280;40102;50.906;6.972;2023-04-25T10:17:10;100774.31;;;10.24;53.39
54194;BME280;40102;50.906;6.972;2023-04-25T10:19:36;100768.19;;;10.22;53.21
54194;BME280;40102;50.906;6.972;2023-04-25T10:22:14;100792.53;;;10.33;52.29
54194;BME280;40102;50.906;6.972;2023-04-25T10:24:42;100778.88;;;10.22;54.10
54194;BME280;40102;50.906;6.972;2023-04-25T10:27:09;100790.19;;;10.27;54.24
54194;BME280;40102;50.906;6.972;2023-04-25T10:29:35;100787.75;;;10.22;54.32
54194;BME280;40102;50.906;6.972;2023-04-25T10:32:00;100794.84;;;10.23;54.39
54194;BME280;40102;50.906;6.972;2023-04-25T10:34:43;100790.66;;;10.18;53.15
54194;BME280;40102;50.906;6.972;2023-04-25T10:37:12;100795.63;;;10.08;53.48
54194;BME280;40102;50.906;6.972;2023-04-25T10:39:39;100795.16;;;10.00;53.25
54194;BME280;40102;50.906;6.972;2023-04-25T10:42:05;100793.34;;;10.00;53.65
54194;BME280;40102;50.906;6.972;2023-04-25T10:44:32;100801.13;;;10.05;54.56
54194;BME280;40102;50.906;6.972;2023-04-25T10:47:02;100793.72;;;10.10;54.97
54194;BME280;40102;50.906;6.972;2023-04-25T10:49:34;100802.94;;;10.22;53.63
54194;BME280;40102;50.906;6.972;2023-04-25T10:52:25;100782.41;;;10.22;53.40
54194;BME280;40102;50.906;6.972;2023-04-25T10:54:54;100794.34;;;10.32;52.87
54194;BME280;40102;50.906;6.972;2023-04-25T10:57:41;100797.66;;;10.37;52.97
54194;BME280;40102;50.906;6.972;2023-04-25T11:00:11;100790.81;;;10.32;52.60
54194;BME280;40102;50.906;6.972;2023-04-25T11:02:43;100788.91;;;10.34;53.05
54194;BME280;40102;50.906;6.972;2023-04-25T11:05:20;100789.09;;;10.31;52.64
54194;BME280;40102;50.906;6.972;2023-04-25T11:07:51;100787.19;;;10.33;52.77
54194;BME280;40102;50.906;6.972;2023-04-25T11:10:17;100796.69;;;10.38;52.62
54194;BME280;40102;50.906;6.972;2023-04-25T11:12:44;100795.84;;;10.38;52.40
54194;BME280;40102;50.906;6.972;2023-04-25T11:15:10;100788.06;;;10.33;52.58
54194;BME280;40102;50.906;6.972;2023-04-25T11:17:35;100794.09;;;10.37;53.13
54194;BME280;40102;50.906;6.972;2023-04-25T11:20:01;100802.91;;;10.39;53.38
54194;BME280;40102;50.906;6.972;2023-04-25T11:22:27;100801.59;;;10.30;53.03
54194;BME280;40102;50.906;6.972;2023-04-25T11:24:53;100806.59;;;10.36;52.68
54194;BME280;40102;50.906;6.972;2023-04-25T11:27:18;100798.84;;;10.32;52.60
54194;BME280;40102;50.906;6.972;2023-04-25T11:29:44;100808.41;;;10.36;52.28
54194;BME280;40102;50.906;6.972;2023-04-25T11:32:09;100790.13;;;10.28;52.01
54194;BME280;40102;50.906;6.972;2023-04-25T11:34:35;100796.94;;;10.34;51.51
54194;BME280;40102;50.906;6.972;2023-04-25T11:37:01;100804.03;;;10.35;51.10
54194;BME280;40102;50.906;6.972;2023-04-25T11:39:27;100805.75;;;10.36;51.20
54194;BME280;40102;50.906;6.972;2023-04-25T11:41:53;100787.34;;;10.30;51.34
54194;BME280;40102;50.906;6.972;2023-04-25T11:44:20;100792.28;;;10.37;51.27
54194;BME280;40102;50.906;6.972;2023-04-25T11:46:46;100797.56;;;10.39;51.11
54194;BME280;40102;50.906;6.972;2023-04-25T11:49:12;100788.41;;;10.43;51.27
54194;BME280;40102;50.906;6.972;2023-04-25T11:54:06;100794.47;;;10.62;51.79
54194;BME280;40102;50.906;6.972;2023-04-25T11:56:32;100786.72;;;10.74;50.99
54194;BME280;40102;50.906;6.972;2023-04-25T11:59:00;100790.69;;;10.82;51.16
54194;BME280;40102;50.906;6.972;2023-04-25T12:01:30;100787.78;;;10.87;50.79
54194;BME280;40102;50.906;6.972;2023-04-25T12:04:09;100787.50;;;10.91;50.31
54194;BME280;40102;50.906;6.972;2023-04-25T12:06:37;100789.16;;;10.94;51.22
54194;BME280;40102;50.906;6.972;2023-04-25T12:09:04;100788.81;;;11.00;49.87
54194;BME280;40102;50.906;6.972;2023-04-25T12:11:32;100802.38;;;10.97;49.18
54194;BME280;40102;50.906;6.972;2023-04-25T12:14:03;100806.59;;;11.01;47.61
54194;BME280;40102;50.906;6.972;2023-04-25T12:16:39;100809.09;;;11.04;47.75
54194;BME280;40102;50.906;6.972;2023-04-25T12:19:05;100799.16;;;11.06;48.40
54194;BME280;40102;50.906;6.972;2023-04-25T12:21:32;100817.31;;;11.17;47.34
54194;BME280;40102;50.906;6.972;2023-04-25T12:24:09;100800.28;;;11.18;44.96
54194;BME280;40102;50.906;6.972;2023-04-25T12:26:55;100808.31;;;11.33;44.81
54194;BME280;40102;50.906;6.972;2023-04-25T12:29:25;100813.22;;;11.41;45.60
54194;BME280;40102;50.906;6.972;2023-04-25T12:31:51;100798.03;;;11.42;45.90
54194;BME280;40102;50.906;6.972;2023-04-25T12:34:18;100789.63;;;11.48;45.70
54194;BME280;40102;50.906;6.972;2023-04-25T12:36:44;100786.88;;;11.49;44.48
54194;BME280;40102;50.906;6.972;2023-04-25T12:39:24;100810.34;;;11.60;44.40
54194;BME280;40102;50.906;6.972;2023-04-25T12:41:50;100800.84;;;11.54;43.98
54194;BME280;40102;50.906;6.972;2023-04-25T12:44:17;100798.09;;;11.56;44.93
54194;BME280;40102;50.906;6.972;2023-04-25T12:46:42;100799.97;;;11.54;45.21
54194;BME280;40102;50.906;6.972;2023-04-25T12:49:08;100806.81;;;11.59;46.07
54194;BME280;40102;50.906;6.972;2023-04-25T12:51:35;100809.84;;;11.53;46.59
54194;BME280;40102;50.906;6.972;2023-04-25T12:54:01;100817.09;;;11.51;46.31